Weather observations for the past three days for
College Station, Easterwood Field
Metric (Imperial)
Date Time (cdt) Wind (kph) Vis. (km) Weather Sky Cond. Temperature (ºC) Relative Humidity Wind Chill (°C) Heat Index (°C) Pressure Precipitation (cm)
Air Dwpt 6 hour altimeter (cm) sea level (mb) 1 hr 3 hr 6 hr
Max. Min.
10 06:53 E 9 14.48 Mostly Cloudy BKN007 21.1 20.6 23.3 20.6 97% 75.97 1012.4
10 05:53 E 6 16.09 A Few Clouds FEW006 21.1 20 93% 75.92 1011.6
10 04:53 S 15 16.09 Fair CLR 21.1 20 93% 75.82 1010.2
10 03:53 S 11 16.09 Fair CLR 21.1 19.4 90% 75.79 1010.1
10 02:53 S 11 16.09 Fair CLR 21.7 20 90% 75.82 1010.3
10 01:53 S 11 16.09 Fair CLR 22.2 20.6 91% 75.82 1010.5
10 00:53 SE 15 16.09 Fair CLR 23.3 20.6 30.6 23.3 85% 75.84 1010.6
09 23:53 SE 17 16.09 Fair CLR 23.9 18.3 71% 25 75.84 1010.7
09 22:53 S 9 16.09 Fair CLR 24.4 19.4 74% 25 75.82 1010.5
09 21:53 S 7 16.09 Fair CLR 25 18.9 69% 26 75.77 1009.5
09 20:53 S 9 16.09 Fair CLR 25.6 18.9 67% 27 75.72 1008.8
09 19:53 S 15 16.09 Fair CLR 28.3 21.1 65% 31 75.64 1008.1
09 18:53 SE 7 16.09 NULL NULL 30.6 21.1 57% 33 75.62 1007.6
09 17:53 Calm 0.00 NULL NULL 30.6 20.6 55% 33 75.59 1007.4
09 16:53 NW 6 16.09 Fair CLR 29.4 20.6 59% 32 75.59 1007.4
09 15:53 Calm 16.09 A Few Clouds FEW043 31.1 21.1 55% 34 75.62 1007.6
09 14:53 Calm 16.09 Mostly Cloudy BKN041 30 21.1 59% 33 75.69 1008.5
09 13:53 Calm 16.09 Partly Cloudy FEW029 SCT050 29.4 21.7 63% 32 75.74 1009.2
09 12:53 Vrbl 6 16.09 Partly Cloudy FEW015 FEW021 SCT026 27.8 22.8 27.8 22.8 74% 31 75.79 1010.1
09 11:53 Calm 16.09 Overcast SCT015 OVC023 25.6 22.8 85% 27 75.84 1010.5
09 10:53 Vrbl 6 16.09 Overcast BKN010 OVC016 25 22.2 85% 26 75.84 1010.6
09 09:53 SW 9 16.09 Overcast OVC009 24.4 22.2 88% 25 75.79 1010.1
09 08:53 S 11 12.87 Overcast OVC005 23.3 22.2 94% 75.77 1009.5
09 07:53 S 9 6.44 Fog/Mist OVC006 22.8 22.2 96% 75.74 1009.4
09 06:53 NW 6 2.01 Fog/Mist OVC002 22.8 22.2 22.8 22.2 96% 75.77 1009.7
09 05:53 W 7 2.01 Fog/Mist OVC003 22.8 22.2 96% 75.79 1010.0
09 04:53 Calm 2.82 Fog/Mist OVC002 22.8 22.2 96% 75.77 1009.7
09 03:53 Calm 9.66 Fog/Mist OVC004 22.8 21.7 94% 75.77 1009.5
09 02:53 SE 6 11.27 Overcast OVC005 22.8 21.7 94% 75.79 1009.9
09 01:53 S 7 11.27 Overcast OVC005 22.8 21.7 94% 75.79 1010.0
09 00:53 S 13 14.48 Overcast OVC006 22.8 21.7 25.6 22.8 94% 75.79 1010.0
08 23:53 SE 15 12.87 Overcast OVC005 22.8 21.7 94% 75.77 1009.7
08 22:53 SE 20 16.09 Overcast OVC011 23.3 21.7 91% 75.74 1009.3
08 21:53 SE 13 16.09 Overcast BKN016 OVC070 23.9 21.7 88% 24 75.72 1009.0
08 20:53 SE 7 16.09 Overcast BKN023 OVC075 24.4 21.7 85% 25 75.69 1008.8
08 19:53 SE 13 16.09 Mostly Cloudy BKN070 24.4 21.1 82% 25 75.67 1008.4
08 18:53 SE 13 16.09 Mostly Cloudy BKN060 25.6 21.1 26.7 22.8 76% 27 75.67 1008.4
08 17:53 SE 11 16.09 Overcast SCT041 BKN060 OVC080 25.6 21.1 76% 27 75.67 1008.3
08 16:53 S 13 16.09 Mostly Cloudy BKN022 26.1 21.1 74% 28 75.69 1008.7
08 15:53 S 9 16.09 Mostly Cloudy SCT024 BKN075 26.1 20.6 72% 28 75.74 1009.5
08 14:53 E 11 16.09 Overcast OVC022 25.6 20 71% 27 75.79 1010.1
08 13:53 NE 9 16.09 Overcast OVC018 24.4 19.4 74% 25 75.84 1010.8
08 12:53 SE 9 16.09 Overcast OVC014 22.8 18.9 22.8 16.7 79% 75.92 1011.7
08 11:53 E 7 16.09 Overcast OVC014 21.7 18.3 81% 75.95 1012.2
08 10:53 E 9 16.09 Overcast OVC016 20 17.2 84% 76 1012.7
08 09:53 E 13 16.09 Overcast OVC017 18.9 16.7 87% 76.05 1013.5
08 08:53 E 13 16.09 Overcast OVC017 17.2 15.6 90% 76.02 1013.3
08 07:53 E 7 12.87 Light Rain OVC019 16.7 15.6 93% 76.05 1013.5
08 06:53 NE 17 16.09 Overcast OVC022 17.2 14.4 17.8 17.2 84% 76.07 1013.8
08 05:53 NE 9 16.09 Overcast OVC022 17.8 13.9 78% 76 1012.9
08 04:53 NE 11 16.09 Overcast OVC026 17.8 13.3 75% 76.02 1013.1
08 03:53 NE 15 16.09 Overcast OVC026 17.2 13.3 78% 76 1013.0
08 02:53 NE 11 16.09 Overcast OVC029 17.2 13.3 78% 76.05 1013.5
08 01:53 N 13 16.09 Fair CLR 17.2 13.3 78% 76.12 1014.3
08 00:53 NE 11 16.09 Fair CLR 17.2 13.3 18.9 17.2 78% 76.1 1014.0
07 23:53 NW 15 16.09 Fair CLR 17.2 13.3 78% 76.17 1015.2
07 22:53 N 15 16.09 Fair CLR 17.8 13.3 75% 76.1 1014.4
07 21:53 NE 13 16.09 Fair CLR 17.8 12.8 73% 76.02 1013.4
07 20:53 NE 15 16.09 Fair CLR 18.3 12.8 70% 76.07 1013.7
07 19:53 N 17 16.09 Fair CLR 18.3 12.2 68% 76.1 1014.3
07 18:53 NE 15 16.09 Fair CLR 18.9 11.7 21.1 18.9 63% 76.15 1014.8
07 17:53 N 19 16.09 Fair CLR 19.4 11.7 61% 76.15 1014.8
07 16:53 N 26 16.09 A Few Clouds FEW039 20 12.2 61% 76.12 1014.6
07 15:53 N 24 16.09 Mostly Cloudy FEW090 BKN110 19.4 11.7 61% 76.12 1014.4
07 14:53 N 20 16.09 A Few Clouds FEW110 20.6 12.2 59% 76.23 1015.8
07 13:53 NE 17 16.09 Fair CLR 21.1 12.2 57% 76.23 1015.8
07 12:53 N 20 16.09 Fair CLR 20 11.7 20 15 59% 76.35 1017.8
07 11:53 N 13 16.09 Fair CLR 17.8 11.7 68% 76.33 1017.4
07 10:53 N 13 16.09 Overcast FEW022 OVC036 17.2 11.1 68% 76.35 1017.8
07 09:53 NE 22 G 31 16.09 Overcast BKN018 OVC034 16.1 11.7 75% 76.33 1017.3
07 08:53 N 28 16.09 Overcast OVC014 15.6 11.7 78% 76.35 1017.5
07 07:53 N 20 G 39 16.09 Overcast OVC012 15 12.2 83% 76.33 1017.1
Date Time (cdt) Wind (kph) Vis. (km) Weather Sky Cond. Air Dwpt Max. Min. Relative Humidity Wind Chill (°C) Heat Index (°C) altimeter (cm) sea level (mb) 1 hr 3 hr 6 hr
6 hour
Temperature (ºC) Pressure Precipitation (cm)